sensor_id;sensor_type;location;lat;lon;timestamp;temperature;humidity
29551;DHT22;16488;52.396;10.696;2023-07-20T00:01:27;16.60;99.90
29551;DHT22;16488;52.396;10.696;2023-07-20T00:03:53;16.50;99.90
29551;DHT22;16488;52.396;10.696;2023-07-20T00:06:24;16.50;99.90
29551;DHT22;16488;52.396;10.696;2023-07-20T00:08:50;16.50;99.90
29551;DHT22;16488;52.396;10.696;2023-07-20T00:11:16;16.50;99.90
29551;DHT22;16488;52.396;10.696;2023-07-20T00:13:41;16.40;99.90
29551;DHT22;16488;52.396;10.696;2023-07-20T00:16:07;16.30;99.90
29551;DHT22;16488;52.396;10.696;2023-07-20T00:18:33;16.20;99.90
29551;DHT22;16488;52.396;10.696;2023-07-20T00:20:58;16.10;99.90
29551;DHT22;16488;52.396;10.696;2023-07-20T00:23:27;16.20;99.90
29551;DHT22;16488;52.396;10.696;2023-07-20T00:25:53;16.20;99.90
29551;DHT22;16488;52.396;10.696;2023-07-20T00:28:19;16.20;99.90
29551;DHT22;16488;52.396;10.696;2023-07-20T00:30:45;16.30;99.90
29551;DHT22;16488;52.396;10.696;2023-07-20T00:33:11;16.30;99.90
29551;DHT22;16488;52.396;10.696;2023-07-20T00:35:38;16.30;99.90
29551;DHT22;16488;52.396;10.696;2023-07-20T00:38:04;16.30;99.90
29551;DHT22;16488;52.396;10.696;2023-07-20T00:40:36;16.30;99.90
29551;DHT22;16488;52.396;10.696;2023-07-20T00:43:02;16.30;99.90
29551;DHT22;16488;52.396;10.696;2023-07-20T00:45:29;16.30;99.90
29551;DHT22;16488;52.396;10.696;2023-07-20T00:47:54;16.20;99.90
29551;DHT22;16488;52.396;10.696;2023-07-20T00:50:20;16.00;99.90
29551;DHT22;16488;52.396;10.696;2023-07-20T00:52:46;15.90;99.90
29551;DHT22;16488;52.396;10.696;2023-07-20T00:55:11;15.90;99.90
29551;DHT22;16488;52.396;10.696;2023-07-20T00:57:37;15.80;99.90
29551;DHT22;16488;52.396;10.696;2023-07-20T01:00:03;15.80;99.90
29551;DHT22;16488;52.396;10.696;2023-07-20T01:02:29;15.90;99.90
29551;DHT22;16488;52.396;10.696;2023-07-20T01:04:55;15.90;99.90
29551;DHT22;16488;52.396;10.696;2023-07-20T01:10:31;15.80;99.90
29551;DHT22;16488;52.396;10.696;2023-07-20T01:13:00;15.80;99.90
29551;DHT22;16488;52.396;10.696;2023-07-20T01:15:26;15.80;99.90
29551;DHT22;16488;52.396;10.696;2023-07-20T01:17:52;15.80;99.90
29551;DHT22;16488;52.396;10.696;2023-07-20T01:20:19;15.70;99.90
29551;DHT22;16488;52.396;10.696;2023-07-20T01:31:21;15.60;99.90
29551;DHT22;16488;52.396;10.696;2023-07-20T01:33:49;15.60;99.90
29551;DHT22;16488;52.396;10.696;2023-07-20T01:36:18;15.50;99.90
29551;DHT22;16488;52.396;10.696;2023-07-20T01:38:43;15.30;99.90
29551;DHT22;16488;52.396;10.696;2023-07-20T01:41:10;15.30;99.90
29551;DHT22;16488;52.396;10.696;2023-07-20T01:43:36;15.10;99.90
29551;DHT22;16488;52.396;10.696;2023-07-20T01:46:02;15.00;99.90
29551;DHT22;16488;52.396;10.696;2023-07-20T01:48:28;14.90;99.90
29551;DHT22;16488;52.396;10.696;2023-07-20T01:50:53;14.90;99.90
29551;DHT22;16488;52.396;10.696;2023-07-20T01:53:20;14.90;99.90
29551;DHT22;16488;52.396;10.696;2023-07-20T01:55:46;15.00;99.90
29551;DHT22;16488;52.396;10.696;2023-07-20T01:58:12;15.00;99.90
29551;DHT22;16488;52.396;10.696;2023-07-20T02:00:38;15.00;99.90
29551;DHT22;16488;52.396;10.696;2023-07-20T02:03:04;15.10;99.90
29551;DHT22;16488;52.396;10.696;2023-07-20T02:05:29;14.90;99.90
29551;DHT22;16488;52.396;10.696;2023-07-20T02:07:55;14.70;99.90
29551;DHT22;16488;52.396;10.696;2023-07-20T02:10:21;14.30;99.90
29551;DHT22;16488;52.396;10.696;2023-07-20T02:12:46;14.10;99.90
29551;DHT22;16488;52.396;10.696;2023-07-20T02:15:14;14.00;99.90
29551;DHT22;16488;52.396;10.696;2023-07-20T02:17:42;14.00;99.90
29551;DHT22;16488;52.396;10.696;2023-07-20T02:20:09;13.90;99.90
29551;DHT22;16488;52.396;10.696;2023-07-20T02:22:36;13.80;99.90
29551;DHT22;16488;52.396;10.696;2023-07-20T02:25:06;13.80;99.90
29551;DHT22;16488;52.396;10.696;2023-07-20T02:27:33;13.80;99.90
29551;DHT22;16488;52.396;10.696;2023-07-20T02:29:58;13.90;99.90
29551;DHT22;16488;52.396;10.696;2023-07-20T02:32:24;14.00;99.90
29551;DHT22;16488;52.396;10.696;2023-07-20T02:34:50;14.00;99.90
29551;DHT22;16488;52.396;10.696;2023-07-20T02:37:16;13.80;99.90
29551;DHT22;16488;52.396;10.696;2023-07-20T02:39:42;13.80;99.90
29551;DHT22;16488;52.396;10.696;2023-07-20T02:42:08;13.80;99.90
29551;DHT22;16488;52.396;10.696;2023-07-20T02:44:33;13.70;99.90
29551;DHT22;16488;52.396;10.696;2023-07-20T02:46:59;13.70;99.90
29551;DHT22;16488;52.396;10.696;2023-07-20T02:49:24;13.70;99.90
29551;DHT22;16488;52.396;10.696;2023-07-20T02:51:50;13.70;99.90
29551;DHT22;16488;52.396;10.696;2023-07-20T02:54:15;13.70;99.90
29551;DHT22;16488;52.396;10.696;2023-07-20T02:56:41;13.70;99.90
29551;DHT22;16488;52.396;10.696;2023-07-20T02:59:07;13.70;99.90
29551;DHT22;16488;52.396;10.696;2023-07-20T03:01:33;13.70;99.90
29551;DHT22;16488;52.396;10.696;2023-07-20T03:03:58;13.60;99.90
29551;DHT22;16488;52.396;10.696;2023-07-20T03:06:24;13.60;99.90
29551;DHT22;16488;52.396;10.696;2023-07-20T03:08:49;13.70;99.90
29551;DHT22;16488;52.396;10.696;2023-07-20T03:11:18;13.80;99.90
29551;DHT22;16488;52.396;10.696;2023-07-20T03:13:44;13.90;99.90
29551;DHT22;16488;52.396;10.696;2023-07-20T03:16:11;13.90;99.90
29551;DHT22;16488;52.396;10.696;2023-07-20T03:18:38;14.10;99.90
29551;DHT22;16488;52.396;10.696;2023-07-20T03:21:04;14.20;99.90
29551;DHT22;16488;52.396;10.696;2023-07-20T03:23:30;14.20;99.90
29551;DHT22;16488;52.396;10.696;2023-07-20T03:25:55;14.30;99.90
29551;DHT22;16488;52.396;10.696;2023-07-20T03:28:21;14.40;99.90
29551;DHT22;16488;52.396;10.696;2023-07-20T03:30:52;14.20;99.90
29551;DHT22;16488;52.396;10.696;2023-07-20T03:33:17;14.20;99.90
29551;DHT22;16488;52.396;10.696;2023-07-20T03:35:43;14.30;99.90
29551;DHT22;16488;52.396;10.696;2023-07-20T03:38:09;14.40;99.90
29551;DHT22;16488;52.396;10.696;2023-07-20T03:40:34;14.40;99.90
29551;DHT22;16488;52.396;10.696;2023-07-20T03:43:00;14.40;99.90
29551;DHT22;16488;52.396;10.696;2023-07-20T03:45:25;14.50;99.90
29551;DHT22;16488;52.396;10.696;2023-07-20T03:47:51;14.50;99.90
29551;DHT22;16488;52.396;10.696;2023-07-20T03:50:16;14.50;99.90
29551;DHT22;16488;52.396;10.696;2023-07-20T03:52:42;14.60;99.90
29551;DHT22;16488;52.396;10.696;2023-07-20T03:55:08;14.70;99.90
29551;DHT22;16488;52.396;10.696;2023-07-20T03:57:33;14.80;99.90
29551;DHT22;16488;52.396;10.696;2023-07-20T03:59:59;14.80;99.90
29551;DHT22;16488;52.396;10.696;2023-07-20T04:02:24;14.70;99.90
29551;DHT22;16488;52.396;10.696;2023-07-20T04:04:51;14.80;99.90
29551;DHT22;16488;52.396;10.696;2023-07-20T04:07:16;14.80;99.90
29551;DHT22;16488;52.396;10.696;2023-07-20T04:09:42;14.90;99.90
29551;DHT22;16488;52.396;10.696;2023-07-20T04:12:08;14.90;99.90
29551;DHT22;16488;52.396;10.696;2023-07-20T04:14:33;14.90;99.90
29551;DHT22;16488;52.396;10.696;2023-07-20T04:16:59;15.00;99.90
29551;DHT22;16488;52.396;10.696;2023-07-20T04:19:25;15.00;99.90
29551;DHT22;16488;52.396;10.696;2023-07-20T04:21:51;15.00;99.90
29551;DHT22;16488;52.396;10.696;2023-07-20T04:24:17;15.00;99.90
29551;DHT22;16488;52.396;10.696;2023-07-20T04:26:42;15.10;99.90
29551;DHT22;16488;52.396;10.696;2023-07-20T04:29:08;15.10;99.90
29551;DHT22;16488;52.396;10.696;2023-07-20T04:31:34;15.10;99.90
29551;DHT22;16488;52.396;10.696;2023-07-20T04:34:00;15.10;99.90
29551;DHT22;16488;52.396;10.696;2023-07-20T04:36:26;15.10;99.90
29551;DHT22;16488;52.396;10.696;2023-07-20T04:38:52;15.10;99.90
29551;DHT22;16488;52.396;10.696;2023-07-20T04:41:17;15.10;99.90
29551;DHT22;16488;52.396;10.696;2023-07-20T04:43:43;15.20;99.90
29551;DHT22;16488;52.396;10.696;2023-07-20T04:46:10;15.30;99.90
29551;DHT22;16488;52.396;10.696;2023-07-20T04:48:36;15.30;99.90
29551;DHT22;16488;52.396;10.696;2023-07-20T04:51:02;15.30;99.90
29551;DHT22;16488;52.396;10.696;2023-07-20T04:53:28;15.40;99.90
29551;DHT22;16488;52.396;10.696;2023-07-20T04:55:54;15.40;99.90
29551;DHT22;16488;52.396;10.696;2023-07-20T04:58:21;15.40;99.90
29551;DHT22;16488;52.396;10.696;2023-07-20T05:00:50;15.50;99.90
29551;DHT22;16488;52.396;10.696;2023-07-20T05:03:16;15.60;99.90
29551;DHT22;16488;52.396;10.696;2023-07-20T05:05:42;15.70;99.90
29551;DHT22;16488;52.396;10.696;2023-07-20T05:08:08;15.70;99.90
29551;DHT22;16488;52.396;10.696;2023-07-20T05:10:33;15.70;99.90
29551;DHT22;16488;52.396;10.696;2023-07-20T05:12:59;15.70;99.90
29551;DHT22;16488;52.396;10.696;2023-07-20T05:15:25;15.60;99.90
29551;DHT22;16488;52.396;10.696;2023-07-20T05:17:51;15.60;99.90
29551;DHT22;16488;52.396;10.696;2023-07-20T05:20:16;15.60;99.90
29551;DHT22;16488;52.396;10.696;2023-07-20T05:22:42;15.50;99.90
29551;DHT22;16488;52.396;10.696;2023-07-20T05:25:09;15.60;99.90
29551;DHT22;16488;52.396;10.696;2023-07-20T05:27:37;15.60;99.90
29551;DHT22;16488;52.396;10.696;2023-07-20T05:30:04;15.60;99.90
29551;DHT22;16488;52.396;10.696;2023-07-20T05:32:30;15.60;99.90
29551;DHT22;16488;52.396;10.696;2023-07-20T05:37:23;15.60;99.90
29551;DHT22;16488;52.396;10.696;2023-07-20T05:39:49;15.60;99.90
29551;DHT22;16488;52.396;10.696;2023-07-20T05:42:14;15.60;99.90
29551;DHT22;16488;52.396;10.696;2023-07-20T05:44:41;15.70;99.90
29551;DHT22;16488;52.396;10.696;2023-07-20T05:47:06;15.70;99.90
29551;DHT22;16488;52.396;10.696;2023-07-20T05:49:32;15.70;99.90
29551;DHT22;16488;52.396;10.696;2023-07-20T05:51:58;15.70;99.90
29551;DHT22;16488;52.396;10.696;2023-07-20T05:54:24;15.70;99.90
29551;DHT22;16488;52.396;10.696;2023-07-20T05:56:51;15.70;99.90
29551;DHT22;16488;52.396;10.696;2023-07-20T05:59:16;15.70;99.90
29551;DHT22;16488;52.396;10.696;2023-07-20T06:01:43;15.70;99.90
29551;DHT22;16488;52.396;10.696;2023-07-20T06:04:09;15.50;99.90
29551;DHT22;16488;52.396;10.696;2023-07-20T06:06:34;15.30;99.90
29551;DHT22;16488;52.396;10.696;2023-07-20T06:09:00;15.00;99.90
29551;DHT22;16488;52.396;10.696;2023-07-20T06:11:30;15.00;99.90
29551;DHT22;16488;52.396;10.696;2023-07-20T06:13:56;15.00;99.90
29551;DHT22;16488;52.396;10.696;2023-07-20T06:16:22;15.10;99.90
29551;DHT22;16488;52.396;10.696;2023-07-20T06:18:47;15.20;99.90
29551;DHT22;16488;52.396;10.696;2023-07-20T06:21:13;15.20;99.90
29551;DHT22;16488;52.396;10.696;2023-07-20T06:23:39;15.20;99.90
29551;DHT22;16488;52.396;10.696;2023-07-20T06:26:06;15.30;99.90
29551;DHT22;16488;52.396;10.696;2023-07-20T06:28:32;15.30;99.90
29551;DHT22;16488;52.396;10.696;2023-07-20T06:31:02;15.30;99.90
29551;DHT22;16488;52.396;10.696;2023-07-20T06:33:29;15.30;99.90
29551;DHT22;16488;52.396;10.696;2023-07-20T06:35:54;15.30;99.90
29551;DHT22;16488;52.396;10.696;2023-07-20T06:38:22;15.20;99.90
29551;DHT22;16488;52.396;10.696;2023-07-20T06:40:49;15.20;99.90
29551;DHT22;16488;52.396;10.696;2023-07-20T06:43:14;15.20;99.90
29551;DHT22;16488;52.396;10.696;2023-07-20T06:45:42;15.20;99.90
29551;DHT22;16488;52.396;10.696;2023-07-20T06:48:07;15.20;99.90
29551;DHT22;16488;52.396;10.696;2023-07-20T06:50:33;15.20;99.90
29551;DHT22;16488;52.396;10.696;2023-07-20T06:52:59;15.00;99.90
29551;DHT22;16488;52.396;10.696;2023-07-20T06:55:25;15.00;99.90
29551;DHT22;16488;52.396;10.696;2023-07-20T06:57:51;14.90;99.90
29551;DHT22;16488;52.396;10.696;2023-07-20T07:00:17;14.80;99.90
29551;DHT22;16488;52.396;10.696;2023-07-20T07:02:43;14.80;99.90
29551;DHT22;16488;52.396;10.696;2023-07-20T07:05:09;14.80;99.90
29551;DHT22;16488;52.396;10.696;2023-07-20T07:07:34;14.90;99.90
29551;DHT22;16488;52.396;10.696;2023-07-20T07:10:01;14.80;99.90
29551;DHT22;16488;52.396;10.696;2023-07-20T07:12:30;14.80;99.90
29551;DHT22;16488;52.396;10.696;2023-07-20T07:14:55;14.90;99.90
29551;DHT22;16488;52.396;10.696;2023-07-20T07:17:21;15.00;99.90
29551;DHT22;16488;52.396;10.696;2023-07-20T07:19:46;15.10;99.90
29551;DHT22;16488;52.396;10.696;2023-07-20T07:22:12;15.10;99.90
29551;DHT22;16488;52.396;10.696;2023-07-20T07:24:39;15.20;99.90
29551;DHT22;16488;52.396;10.696;2023-07-20T07:27:08;15.30;99.90
29551;DHT22;16488;52.396;10.696;2023-07-20T07:29:33;15.30;99.90
29551;DHT22;16488;52.396;10.696;2023-07-20T07:31:59;15.30;99.90
29551;DHT22;16488;52.396;10.696;2023-07-20T07:34:25;15.40;99.90
29551;DHT22;16488;52.396;10.696;2023-07-20T07:36:51;15.40;99.90
29551;DHT22;16488;52.396;10.696;2023-07-20T07:39:17;15.50;99.90
29551;DHT22;16488;52.396;10.696;2023-07-20T07:41:42;15.60;99.90
29551;DHT22;16488;52.396;10.696;2023-07-20T07:44:08;15.70;99.90
29551;DHT22;16488;52.396;10.696;2023-07-20T07:46:33;15.80;99.90
29551;DHT22;16488;52.396;10.696;2023-07-20T07:48:59;15.80;99.90
29551;DHT22;16488;52.396;10.696;2023-07-20T07:51:25;15.90;99.90
29551;DHT22;16488;52.396;10.696;2023-07-20T07:53:52;16.00;99.90
29551;DHT22;16488;52.396;10.696;2023-07-20T07:56:18;16.00;99.90
29551;DHT22;16488;52.396;10.696;2023-07-20T07:58:51;16.10;99.90
29551;DHT22;16488;52.396;10.696;2023-07-20T08:01:19;16.30;99.90
29551;DHT22;16488;52.396;10.696;2023-07-20T08:03:45;16.40;99.90
29551;DHT22;16488;52.396;10.696;2023-07-20T08:06:13;16.50;99.90
29551;DHT22;16488;52.396;10.696;2023-07-20T08:08:39;16.50;99.90
29551;DHT22;16488;52.396;10.696;2023-07-20T08:11:04;16.50;99.90
29551;DHT22;16488;52.396;10.696;2023-07-20T08:13:30;16.50;99.90
29551;DHT22;16488;52.396;10.696;2023-07-20T08:15:57;16.60;99.90
29551;DHT22;16488;52.396;10.696;2023-07-20T08:18:23;16.60;99.90
29551;DHT22;16488;52.396;10.696;2023-07-20T08:20:48;16.60;99.90
29551;DHT22;16488;52.396;10.696;2023-07-20T08:23:15;16.70;99.90
29551;DHT22;16488;52.396;10.696;2023-07-20T08:25:41;16.90;99.90
29551;DHT22;16488;52.396;10.696;2023-07-20T08:28:10;17.00;99.90
29551;DHT22;16488;52.396;10.696;2023-07-20T08:30:43;17.00;99.90
29551;DHT22;16488;52.396;10.696;2023-07-20T08:33:13;17.00;99.90
29551;DHT22;16488;52.396;10.696;2023-07-20T08:35:39;17.20;99.90
29551;DHT22;16488;52.396;10.696;2023-07-20T08:38:05;17.20;99.90
29551;DHT22;16488;52.396;10.696;2023-07-20T08:40:42;17.30;99.90
29551;DHT22;16488;52.396;10.696;2023-07-20T08:43:11;17.50;99.90
29551;DHT22;16488;52.396;10.696;2023-07-20T08:45:39;17.70;99.90
29551;DHT22;16488;52.396;10.696;2023-07-20T08:48:06;17.70;99.90
29551;DHT22;16488;52.396;10.696;2023-07-20T08:50:32;17.70;99.90
29551;DHT22;16488;52.396;10.696;2023-07-20T08:53:01;17.70;99.90
29551;DHT22;16488;52.396;10.696;2023-07-20T08:55:27;17.80;99.90
29551;DHT22;16488;52.396;10.696;2023-07-20T08:57:54;17.80;99.90
29551;DHT22;16488;52.396;10.696;2023-07-20T09:00:22;17.90;99.90
29551;DHT22;16488;52.396;10.696;2023-07-20T09:02:52;18.10;99.90
29551;DHT22;16488;52.396;10.696;2023-07-20T09:05:19;18.30;99.90
29551;DHT22;16488;52.396;10.696;2023-07-20T09:07:44;18.20;99.90
29551;DHT22;16488;52.396;10.696;2023-07-20T09:10:10;18.10;99.90
29551;DHT22;16488;52.396;10.696;2023-07-20T09:12:40;18.00;99.90
29551;DHT22;16488;52.396;10.696;2023-07-20T09:15:07;17.90;99.90
29551;DHT22;16488;52.396;10.696;2023-07-20T09:17:33;17.90;99.90
29551;DHT22;16488;52.396;10.696;2023-07-20T09:20:02;17.80;99.90
29551;DHT22;16488;52.396;10.696;2023-07-20T09:22:33;17.80;99.90
29551;DHT22;16488;52.396;10.696;2023-07-20T09:24:59;17.90;99.90
29551;DHT22;16488;52.396;10.696;2023-07-20T09:27:38;18.10;99.90
29551;DHT22;16488;52.396;10.696;2023-07-20T09:30:05;18.20;99.90
29551;DHT22;16488;52.396;10.696;2023-07-20T09:35:07;18.10;99.90
29551;DHT22;16488;52.396;10.696;2023-07-20T09:37:37;18.00;99.90
29551;DHT22;16488;52.396;10.696;2023-07-20T09:40:06;18.20;99.90
29551;DHT22;16488;52.396;10.696;2023-07-20T09:42:32;18.30;99.90
29551;DHT22;16488;52.396;10.696;2023-07-20T09:44:58;18.30;99.90
29551;DHT22;16488;52.396;10.696;2023-07-20T09:47:24;18.40;99.90
29551;DHT22;16488;52.396;10.696;2023-07-20T09:49:58;18.50;99.90
29551;DHT22;16488;52.396;10.696;2023-07-20T09:52:25;18.50;99.90
29551;DHT22;16488;52.396;10.696;2023-07-20T09:54:51;18.60;99.90
29551;DHT22;16488;52.396;10.696;2023-07-20T09:57:17;18.70;99.90
29551;DHT22;16488;52.396;10.696;2023-07-20T09:59:43;18.80;99.90
29551;DHT22;16488;52.396;10.696;2023-07-20T10:02:21;18.80;99.90
29551;DHT22;16488;52.396;10.696;2023-07-20T10:04:52;18.80;99.90
29551;DHT22;16488;52.396;10.696;2023-07-20T10:07:19;18.90;99.90
29551;DHT22;16488;52.396;10.696;2023-07-20T10:09:48;19.10;99.90
29551;DHT22;16488;52.396;10.696;2023-07-20T10:12:15;19.00;99.90
29551;DHT22;16488;52.396;10.696;2023-07-20T10:14:44;19.10;99.90
29551;DHT22;16488;52.396;10.696;2023-07-20T10:17:14;19.20;99.90
29551;DHT22;16488;52.396;10.696;2023-07-20T10:19:44;19.20;99.90
29551;DHT22;16488;52.396;10.696;2023-07-20T10:22:35;19.30;99.90
29551;DHT22;16488;52.396;10.696;2023-07-20T10:25:01;19.40;99.90
29551;DHT22;16488;52.396;10.696;2023-07-20T10:27:27;19.40;99.90
29551;DHT22;16488;52.396;10.696;2023-07-20T10:29:53;19.40;99.90
29551;DHT22;16488;52.396;10.696;2023-07-20T10:32:20;19.60;99.90
29551;DHT22;16488;52.396;10.696;2023-07-20T10:34:51;19.70;99.50
29551;DHT22;16488;52.396;10.696;2023-07-20T10:37:46;19.70;99.90
29551;DHT22;16488;52.396;10.696;2023-07-20T10:42:50;19.70;99.00
29551;DHT22;16488;52.396;10.696;2023-07-20T10:45:17;20.00;99.30
29551;DHT22;16488;52.396;10.696;2023-07-20T10:47:46;19.90;98.40
29551;DHT22;16488;52.396;10.696;2023-07-20T10:50:12;20.00;98.30
29551;DHT22;16488;52.396;10.696;2023-07-20T10:52:41;20.00;98.60
29551;DHT22;16488;52.396;10.696;2023-07-20T10:55:16;19.80;98.00
29551;DHT22;16488;52.396;10.696;2023-07-20T10:57:42;19.60;97.70
29551;DHT22;16488;52.396;10.696;2023-07-20T11:00:28;19.50;98.30
29551;DHT22;16488;52.396;10.696;2023-07-20T11:02:58;19.50;98.10
29551;DHT22;16488;52.396;10.696;2023-07-20T11:05:35;19.40;98.80
29551;DHT22;16488;52.396;10.696;2023-07-20T11:08:05;19.40;98.60
29551;DHT22;16488;52.396;10.696;2023-07-20T11:10:31;19.40;98.50
29551;DHT22;16488;52.396;10.696;2023-07-20T11:18:25;20.10;98.30
29551;DHT22;16488;52.396;10.696;2023-07-20T11:20:51;20.10;97.40
29551;DHT22;16488;52.396;10.696;2023-07-20T11:23:19;20.10;97.30
29551;DHT22;16488;52.396;10.696;2023-07-20T11:25:44;20.00;97.40
29551;DHT22;16488;52.396;10.696;2023-07-20T11:28:10;19.90;98.90
29551;DHT22;16488;52.396;10.696;2023-07-20T11:30:37;20.10;97.90
29551;DHT22;16488;52.396;10.696;2023-07-20T11:33:04;20.20;97.50
29551;DHT22;16488;52.396;10.696;2023-07-20T11:35:30;20.20;96.70
29551;DHT22;16488;52.396;10.696;2023-07-20T11:37:55;20.20;97.60
29551;DHT22;16488;52.396;10.696;2023-07-20T11:40:22;20.20;97.80
29551;DHT22;16488;52.396;10.696;2023-07-20T11:42:48;20.40;96.60
29551;DHT22;16488;52.396;10.696;2023-07-20T11:45:16;20.50;95.40
29551;DHT22;16488;52.396;10.696;2023-07-20T11:47:43;20.70;95.30
29551;DHT22;16488;52.396;10.696;2023-07-20T11:50:09;20.80;95.20
29551;DHT22;16488;52.396;10.696;2023-07-20T11:52:35;20.90;95.60
29551;DHT22;16488;52.396;10.696;2023-07-20T11:55:03;21.00;95.40
29551;DHT22;16488;52.396;10.696;2023-07-20T11:57:29;21.10;95.60
29551;DHT22;16488;52.396;10.696;2023-07-20T11:59:55;20.90;95.10
29551;DHT22;16488;52.396;10.696;2023-07-20T12:02:23;20.80;95.10
29551;DHT22;16488;52.396;10.696;2023-07-20T12:04:51;20.70;95.10
29551;DHT22;16488;52.396;10.696;2023-07-20T12:07:21;20.40;95.80
29551;DHT22;16488;52.396;10.696;2023-07-20T12:10:07;20.20;94.70
29551;DHT22;16488;52.396;10.696;2023-07-20T12:12:37;20.20;95.80
29551;DHT22;16488;52.396;10.696;2023-07-20T12:15:25;20.30;95.20
29551;DHT22;16488;52.396;10.696;2023-07-20T12:18:00;20.70;94.70
29551;DHT22;16488;52.396;10.696;2023-07-20T12:20:36;21.00;93.40
29551;DHT22;16488;52.396;10.696;2023-07-20T12:23:09;21.00;93.80
29551;DHT22;16488;52.396;10.696;2023-07-20T12:25:39;20.90;93.30
29551;DHT22;16488;52.396;10.696;2023-07-20T12:28:08;20.80;93.80
29551;DHT22;16488;52.396;10.696;2023-07-20T12:30:34;20.60;92.90
29551;DHT22;16488;52.396;10.696;2023-07-20T12:32:59;20.40;92.70
29551;DHT22;16488;52.396;10.696;2023-07-20T12:35:25;20.40;93.00
29551;DHT22;16488;52.396;10.696;2023-07-20T12:37:53;20.70;94.40
29551;DHT22;16488;52.396;10.696;2023-07-20T12:40:19;20.90;92.20
29551;DHT22;16488;52.396;10.696;2023-07-20T12:42:44;21.20;90.10
29551;DHT22;16488;52.396;10.696;2023-07-20T12:45:10;21.30;91.10
29551;DHT22;16488;52.396;10.696;2023-07-20T12:47:37;21.50;88.10
29551;DHT22;16488;52.396;10.696;2023-07-20T12:50:02;21.50;86.50
29551;DHT22;16488;52.396;10.696;2023-07-20T12:52:32;21.50;86.20
29551;DHT22;16488;52.396;10.696;2023-07-20T12:54:57;21.50;88.50
29551;DHT22;16488;52.396;10.696;2023-07-20T12:57:24;21.40;88.60
29551;DHT22;16488;52.396;10.696;2023-07-20T12:59:49;21.20;89.40
29551;DHT22;16488;52.396;10.696;2023-07-20T13:02:15;21.10;90.20
29551;DHT22;16488;52.396;10.696;2023-07-20T13:04:40;21.00;89.90
29551;DHT22;16488;52.396;10.696;2023-07-20T13:07:10;20.90;90.70
29551;DHT22;16488;52.396;10.696;2023-07-20T13:09:37;20.90;91.80
29551;DHT22;16488;52.396;10.696;2023-07-20T13:12:03;21.10;91.20
29551;DHT22;16488;52.396;10.696;2023-07-20T13:14:28;21.20;85.60
29551;DHT22;16488;52.396;10.696;2023-07-20T13:16:55;21.30;86.10
29551;DHT22;16488;52.396;10.696;2023-07-20T13:19:21;21.30;86.60
29551;DHT22;16488;52.396;10.696;2023-07-20T13:21:47;21.20;83.50
29551;DHT22;16488;52.396;10.696;2023-07-20T13:24:13;21.30;84.40
29551;DHT22;16488;52.396;10.696;2023-07-20T13:26:38;21.40;84.20
29551;DHT22;16488;52.396;10.696;2023-07-20T13:29:04;21.30;85.40
29551;DHT22;16488;52.396;10.696;2023-07-20T13:31:30;21.20;87.70
29551;DHT22;16488;52.396;10.696;2023-07-20T13:33:55;21.00;88.20
29551;DHT22;16488;52.396;10.696;2023-07-20T13:36:22;21.00;90.70
29551;DHT22;16488;52.396;10.696;2023-07-20T13:38:48;21.10;90.90
29551;DHT22;16488;52.396;10.696;2023-07-20T13:41:14;21.20;90.90
29551;DHT22;16488;52.396;10.696;2023-07-20T13:43:43;21.30;90.20
29551;DHT22;16488;52.396;10.696;2023-07-20T13:46:08;21.50;89.70
29551;DHT22;16488;52.396;10.696;2023-07-20T13:48:34;21.70;88.90
29551;DHT22;16488;52.396;10.696;2023-07-20T13:50:59;21.70;85.80
29551;DHT22;16488;52.396;10.696;2023-07-20T13:53:25;21.70;86.60
29551;DHT22;16488;52.396;10.696;2023-07-20T13:55:53;21.60;83.50
29551;DHT22;16488;52.396;10.696;2023-07-20T13:58:18;21.60;83.50
29551;DHT22;16488;52.396;10.696;2023-07-20T14:00:44;21.50;83.90
29551;DHT22;16488;52.396;10.696;2023-07-20T14:03:09;21.50;84.10
29551;DHT22;16488;52.396;10.696;2023-07-20T14:05:35;21.50;84.10
29551;DHT22;16488;52.396;10.696;2023-07-20T14:08:00;21.40;83.40
29551;DHT22;16488;52.396;10.696;2023-07-20T14:10:26;21.30;84.30
29551;DHT22;16488;52.396;10.696;2023-07-20T14:12:52;21.20;86.60
29551;DHT22;16488;52.396;10.696;2023-07-20T14:15:17;21.10;88.20
29551;DHT22;16488;52.396;10.696;2023-07-20T14:17:44;21.20;88.90
29551;DHT22;16488;52.396;10.696;2023-07-20T14:20:10;21.10;88.80
29551;DHT22;16488;52.396;10.696;2023-07-20T14:22:36;21.00;88.80
29551;DHT22;16488;52.396;10.696;2023-07-20T14:25:02;20.90;87.90
29551;DHT22;16488;52.396;10.696;2023-07-20T14:27:28;20.90;90.00
29551;DHT22;16488;52.396;10.696;2023-07-20T14:29:53;20.80;88.50
29551;DHT22;16488;52.396;10.696;2023-07-20T14:32:20;20.80;89.20
29551;DHT22;16488;52.396;10.696;2023-07-20T14:34:45;20.80;89.50
29551;DHT22;16488;52.396;10.696;2023-07-20T14:37:11;20.70;88.30
29551;DHT22;16488;52.396;10.696;2023-07-20T14:39:38;20.80;88.20
29551;DHT22;16488;52.396;10.696;2023-07-20T14:42:04;20.80;88.40
29551;DHT22;16488;52.396;10.696;2023-07-20T14:44:29;20.70;87.70
29551;DHT22;16488;52.396;10.696;2023-07-20T14:46:55;20.60;88.10
29551;DHT22;16488;52.396;10.696;2023-07-20T14:49:21;20.60;90.20
29551;DHT22;16488;52.396;10.696;2023-07-20T14:51:47;20.50;90.80
29551;DHT22;16488;52.396;10.696;2023-07-20T14:54:13;20.50;90.90
29551;DHT22;16488;52.396;10.696;2023-07-20T14:56:39;20.50;91.10
29551;DHT22;16488;52.396;10.696;2023-07-20T14:59:13;20.40;90.90
29551;DHT22;16488;52.396;10.696;2023-07-20T15:01:39;20.40;91.00
29551;DHT22;16488;52.396;10.696;2023-07-20T15:04:04;20.40;91.10
29551;DHT22;16488;52.396;10.696;2023-07-20T15:06:30;20.50;90.60
29551;DHT22;16488;52.396;10.696;2023-07-20T15:08:56;20.50;90.90
29551;DHT22;16488;52.396;10.696;2023-07-20T15:11:22;20.70;90.70
29551;DHT22;16488;52.396;10.696;2023-07-20T15:13:47;20.80;90.40
29551;DHT22;16488;52.396;10.696;2023-07-20T15:16:13;21.00;90.20
29551;DHT22;16488;52.396;10.696;2023-07-20T15:18:38;21.20;89.50
29551;DHT22;16488;52.396;10.696;2023-07-20T15:21:04;21.40;89.10
29551;DHT22;16488;52.396;10.696;2023-07-20T15:23:30;21.60;88.30
29551;DHT22;16488;52.396;10.696;2023-07-20T15:25:55;21.60;88.10
29551;DHT22;16488;52.396;10.696;2023-07-20T15:28:22;21.60;88.00
29551;DHT22;16488;52.396;10.696;2023-07-20T15:30:48;21.70;88.20
29551;DHT22;16488;52.396;10.696;2023-07-20T15:33:13;21.70;88.80
29551;DHT22;16488;52.396;10.696;2023-07-20T15:35:39;21.70;88.80
29551;DHT22;16488;52.396;10.696;2023-07-20T15:38:05;21.70;87.60